Time;durP1;ratioP1;P1;durP2;ratioP2;P2;SDS_P1;SDS_P2;PMS_P1;PMS_P2;Temp;Humidity;BMP_temperature;BMP_pressure;BME280_temperature;BME280_humidity;BME280_pressure;Samples;Min_cycle;Max_cycle;Signal;HPM_P1;HPM_P2
2022/11/05 00:09:31;;;;;;;;;;;8.60;99.90;;;;;;5034919;28;19929;-75
2022/11/05 00:17:28;;;;;;;;;;;8.60;99.90;;;;;;5024547;28;19925;-75
2022/11/05 00:19:55;;;;;;;;;;;8.60;99.90;;;;;;5021111;28;19925;-75
2022/11/05 00:25:18;;;;;;;;;;;8.60;99.90;;;;;;5019635;28;19921;-75
2022/11/05 00:27:46;;;;;;;;;;;8.60;99.90;;;;;;5022976;28;19925;-75
2022/11/05 00:30:15;;;;;;;;;;;8.60;99.90;;;;;;5023810;28;19964;-75
2022/11/05 00:32:44;;;;;;;;;;;8.60;99.90;;;;;;5021115;28;19925;-75
2022/11/05 00:35:11;;;;;;;;;;;8.60;99.90;;;;;;5021700;28;19975;-75
2022/11/05 00:37:38;;;;;;;;;;;8.60;99.90;;;;;;5024463;28;19933;-75
2022/11/05 00:40:05;;;;;;;;;;;8.60;99.90;;;;;;5021057;28;20019;-75
2022/11/05 00:45:17;;;;;;;;;;;8.70;99.90;;;;;;5022344;28;19929;-75
2022/11/05 00:50:30;;;;;;;;;;;8.60;99.90;;;;;;5018364;28;19948;-75
2022/11/05 00:52:59;;;;;;;;;;;8.60;99.90;;;;;;5040916;28;19987;-75
2022/11/05 00:55:32;;;;;;;;;;;8.60;99.90;;;;;;5033326;28;19930;-75
2022/11/05 00:57:59;;;;;;;;;;;8.60;99.90;;;;;;5026381;28;19987;-75
2022/11/05 01:00:26;;;;;;;;;;;8.60;99.90;;;;;;5014913;28;20003;-75
2022/11/05 01:02:56;;;;;;;;;;;8.60;99.90;;;;;;5026744;28;19925;-75
2022/11/05 01:05:23;;;;;;;;;;;8.60;99.90;;;;;;5026367;28;19925;-75
2022/11/05 01:07:51;;;;;;;;;;;8.60;99.90;;;;;;5020623;28;19925;-75
2022/11/05 01:10:18;;;;;;;;;;;8.60;99.90;;;;;;5014558;28;19925;-74
2022/11/05 01:12:44;;;;;;;;;;;8.60;99.90;;;;;;5027416;28;19990;-75
2022/11/05 01:15:11;;;;;;;;;;;8.60;99.90;;;;;;5028347;28;19995;-75
2022/11/05 01:17:38;;;;;;;;;;;8.60;99.90;;;;;;5015936;28;19976;-74
2022/11/05 01:20:07;;;;;;;;;;;8.60;99.90;;;;;;5025065;28;19964;-75
2022/11/05 01:22:34;;;;;;;;;;;8.60;99.90;;;;;;5020204;28;19925;-75
2022/11/05 01:25:01;;;;;;;;;;;8.60;99.90;;;;;;5030595;28;20012;-75
2022/11/05 01:27:27;;;;;;;;;;;8.50;99.90;;;;;;5019641;28;19925;-75
2022/11/05 01:29:54;;;;;;;;;;;8.50;99.90;;;;;;5020810;28;19925;-74
2022/11/05 01:32:21;;;;;;;;;;;8.50;99.90;;;;;;5026645;28;19929;-75
2022/11/05 01:34:48;;;;;;;;;;;8.60;99.90;;;;;;5022833;28;19925;-74
2022/11/05 01:37:16;;;;;;;;;;;8.50;99.90;;;;;;5022818;28;19925;-75
2022/11/05 01:39:43;;;;;;;;;;;8.60;99.90;;;;;;5030085;28;20044;-74
2022/11/05 01:42:14;;;;;;;;;;;8.60;99.90;;;;;;5021012;28;19972;-74
2022/11/05 01:45:02;;;;;;;;;;;8.60;99.90;;;;;;5015275;28;20367;-74
2022/11/05 01:47:32;;;;;;;;;;;8.60;99.90;;;;;;5014115;28;20378;-75
2022/11/05 01:50:00;;;;;;;;;;;8.60;99.90;;;;;;5021304;28;19925;-75
2022/11/05 01:52:31;;;;;;;;;;;8.60;99.90;;;;;;5016637;28;19955;-74
2022/11/05 01:54:58;;;;;;;;;;;8.60;99.90;;;;;;5020251;28;20275;-74
2022/11/05 01:57:26;;;;;;;;;;;8.60;99.90;;;;;;5028448;28;19925;-75
2022/11/05 01:59:55;;;;;;;;;;;8.60;99.90;;;;;;5018894;28;20016;-75
2022/11/05 02:02:23;;;;;;;;;;;8.60;99.90;;;;;;5025646;28;19925;-74
2022/11/05 02:04:53;;;;;;;;;;;8.60;99.90;;;;;;5023066;28;20383;-74
2022/11/05 02:07:20;;;;;;;;;;;8.60;99.90;;;;;;5022553;28;20014;-74
2022/11/05 02:09:50;;;;;;;;;;;8.50;99.90;;;;;;5015675;28;20371;-75
2022/11/05 02:12:18;;;;;;;;;;;8.60;99.90;;;;;;5022891;28;20458;-74
2022/11/05 02:14:45;;;;;;;;;;;8.60;99.90;;;;;;5018543;28;19980;-74
2022/11/05 02:17:17;;;;;;;;;;;8.60;99.90;;;;;;5019277;28;20435;-74
2022/11/05 02:19:59;;;;;;;;;;;8.60;99.90;;;;;;5025818;28;20353;-75
2022/11/05 02:22:40;;;;;;;;;;;8.60;99.90;;;;;;5024217;28;19925;-75
2022/11/05 02:25:25;;;;;;;;;;;8.60;99.90;;;;;;5017930;28;19968;-75
2022/11/05 02:28:07;;;;;;;;;;;8.60;99.90;;;;;;5015420;28;20024;-72
2022/11/05 02:30:38;;;;;;;;;;;8.60;99.90;;;;;;5034805;28;19926;-73
2022/11/05 02:33:21;;;;;;;;;;;8.60;99.90;;;;;;5020875;28;20056;-73
2022/11/05 02:35:55;;;;;;;;;;;8.60;99.90;;;;;;5019521;28;19994;-73
2022/11/05 02:38:27;;;;;;;;;;;8.60;99.90;;;;;;5026498;28;20868;-74
2022/11/05 02:40:59;;;;;;;;;;;8.60;99.90;;;;;;5023603;28;20026;-74
2022/11/05 02:43:30;;;;;;;;;;;8.60;99.90;;;;;;5025965;28;19971;-74
2022/11/05 02:46:01;;;;;;;;;;;8.60;99.90;;;;;;5020766;28;19925;-73
2022/11/05 02:48:34;;;;;;;;;;;8.60;99.90;;;;;;5016714;28;19972;-73
2022/11/05 02:51:05;;;;;;;;;;;8.60;99.90;;;;;;5016430;28;19956;-74
2022/11/05 02:53:38;;;;;;;;;;;8.60;99.90;;;;;;5020656;28;20428;-74
2022/11/05 02:56:08;;;;;;;;;;;8.60;99.90;;;;;;5021554;28;20031;-73
2022/11/05 02:58:35;;;;;;;;;;;8.60;99.90;;;;;;5018580;28;19925;-74
2022/11/05 03:01:06;;;;;;;;;;;8.60;99.90;;;;;;5018943;28;20036;-74
2022/11/05 03:03:35;;;;;;;;;;;8.60;99.90;;;;;;5024534;28;19933;-74
2022/11/05 03:06:17;;;;;;;;;;;8.60;99.90;;;;;;5021400;28;20383;-74
2022/11/05 03:08:59;;;;;;;;;;;8.60;99.90;;;;;;5015677;28;19971;-73
2022/11/05 03:11:27;;;;;;;;;;;8.60;99.90;;;;;;5017552;28;19932;-74
2022/11/05 03:13:58;;;;;;;;;;;8.60;99.90;;;;;;5023294;28;20047;-73
2022/11/05 03:16:30;;;;;;;;;;;8.60;99.90;;;;;;5020545;28;19926;-74
2022/11/05 03:19:00;;;;;;;;;;;8.60;99.90;;;;;;5025580;28;20028;-73
2022/11/05 03:21:30;;;;;;;;;;;8.60;99.90;;;;;;5018052;28;19957;-73
2022/11/05 03:23:58;;;;;;;;;;;8.60;99.90;;;;;;5019136;28;20024;-73
2022/11/05 03:26:28;;;;;;;;;;;8.60;99.90;;;;;;5022757;28;19928;-74
2022/11/05 03:28:56;;;;;;;;;;;8.60;99.90;;;;;;5022307;28;19968;-72
2022/11/05 03:31:24;;;;;;;;;;;8.60;99.90;;;;;;5023844;28;19957;-73
2022/11/05 03:33:53;;;;;;;;;;;8.60;99.90;;;;;;5029540;28;19965;-74
2022/11/05 03:36:24;;;;;;;;;;;8.60;99.90;;;;;;5020257;28;19970;-73
2022/11/05 03:38:52;;;;;;;;;;;8.60;99.90;;;;;;5020685;28;20389;-74
2022/11/05 03:41:21;;;;;;;;;;;8.60;99.90;;;;;;5013778;28;19961;-73
2022/11/05 03:43:49;;;;;;;;;;;8.60;99.90;;;;;;5025247;28;19925;-73
2022/11/05 03:46:18;;;;;;;;;;;8.60;99.90;;;;;;5024724;28;19968;-73
2022/11/05 03:48:47;;;;;;;;;;;8.60;99.90;;;;;;5015895;28;19929;-73
2022/11/05 03:51:18;;;;;;;;;;;8.60;99.90;;;;;;5024083;28;20015;-73
2022/11/05 03:53:48;;;;;;;;;;;8.60;99.90;;;;;;5037696;28;20453;-72
2022/11/05 03:56:18;;;;;;;;;;;8.70;99.90;;;;;;5026890;28;20616;-73
2022/11/05 03:58:45;;;;;;;;;;;8.60;99.90;;;;;;5019296;28;20387;-73
2022/11/05 04:01:12;;;;;;;;;;;8.60;99.90;;;;;;5024813;28;19925;-74
2022/11/05 04:03:39;;;;;;;;;;;8.60;99.90;;;;;;5027324;28;20367;-73
2022/11/05 04:14:21;;;;;;;;;;;8.60;99.90;;;;;;5020031;28;20119;-73
2022/11/05 04:25:01;;;;;;;;;;;8.60;99.90;;;;;;5024881;28;19921;-73
2022/11/05 04:27:28;;;;;;;;;;;8.60;99.90;;;;;;5025033;28;20395;-74
2022/11/05 04:32:39;;;;;;;;;;;8.60;99.90;;;;;;5025295;28;19940;-75
2022/11/05 04:35:06;;;;;;;;;;;8.60;99.90;;;;;;5027262;28;20400;-75
2022/11/05 04:37:33;;;;;;;;;;;8.60;99.90;;;;;;5024458;28;20421;-74
2022/11/05 04:40:01;;;;;;;;;;;8.60;99.90;;;;;;5024556;28;19936;-74
2022/11/05 04:42:28;;;;;;;;;;;8.60;99.90;;;;;;5027977;28;19925;-75
2022/11/05 04:44:55;;;;;;;;;;;8.60;99.90;;;;;;5020027;28;19928;-75
2022/11/05 04:47:22;;;;;;;;;;;8.60;99.90;;;;;;5020064;28;20971;-75
2022/11/05 04:49:49;;;;;;;;;;;8.60;99.90;;;;;;5025770;28;19932;-74
2022/11/05 04:52:16;;;;;;;;;;;8.60;99.90;;;;;;5026078;28;20024;-75
2022/11/05 04:54:43;;;;;;;;;;;8.60;99.90;;;;;;5023931;28;19925;-75
2022/11/05 04:57:11;;;;;;;;;;;8.60;99.90;;;;;;5022126;28;19961;-75
2022/11/05 04:59:38;;;;;;;;;;;8.60;99.90;;;;;;5024658;28;19932;-74
2022/11/05 05:02:05;;;;;;;;;;;8.60;99.90;;;;;;5011010;28;19926;-75
2022/11/05 05:04:32;;;;;;;;;;;8.60;99.90;;;;;;5018123;28;19929;-74
2022/11/05 05:06:58;;;;;;;;;;;8.60;99.90;;;;;;5023292;28;20514;-74
2022/11/05 05:09:26;;;;;;;;;;;8.60;99.90;;;;;;5011176;28;19935;-77
2022/11/05 05:11:53;;;;;;;;;;;8.60;99.90;;;;;;5037122;28;20340;-75
2022/11/05 05:14:21;;;;;;;;;;;8.60;99.90;;;;;;5013744;28;19933;-74
2022/11/05 05:16:48;;;;;;;;;;;8.60;99.90;;;;;;5012645;28;19945;-75
2022/11/05 05:19:15;;;;;;;;;;;8.60;99.90;;;;;;5011922;28;20283;-74
2022/11/05 05:21:41;;;;;;;;;;;8.60;99.90;;;;;;5011854;28;19972;-74
2022/11/05 05:24:09;;;;;;;;;;;8.60;99.90;;;;;;5012525;28;19963;-75
2022/11/05 05:26:35;;;;;;;;;;;8.60;99.90;;;;;;5009605;28;20383;-74
2022/11/05 05:29:03;;;;;;;;;;;8.60;99.90;;;;;;5006579;28;20516;-74
2022/11/05 05:31:31;;;;;;;;;;;8.50;99.90;;;;;;5017148;28;20252;-74
2022/11/05 05:33:58;;;;;;;;;;;8.50;99.90;;;;;;5015693;28;20818;-74
2022/11/05 05:36:25;;;;;;;;;;;8.50;99.90;;;;;;5015646;28;19961;-74
2022/11/05 05:38:52;;;;;;;;;;;8.50;99.90;;;;;;5012438;28;19940;-74
2022/11/05 05:41:19;;;;;;;;;;;8.50;99.90;;;;;;5022103;28;19947;-74
2022/11/05 05:43:46;;;;;;;;;;;8.50;99.90;;;;;;5017796;28;19926;-74
2022/11/05 05:46:13;;;;;;;;;;;8.60;99.90;;;;;;5011071;28;19976;-74
2022/11/05 05:48:42;;;;;;;;;;;8.50;99.90;;;;;;5017104;28;20298;-74
2022/11/05 05:51:09;;;;;;;;;;;8.50;99.90;;;;;;5018806;28;19929;-74
2022/11/05 05:53:36;;;;;;;;;;;8.50;99.90;;;;;;5017134;28;19925;-74
2022/11/05 05:56:04;;;;;;;;;;;8.60;99.90;;;;;;5017820;28;20002;-74
2022/11/05 05:58:32;;;;;;;;;;;8.60;99.90;;;;;;5014923;28;20442;-74
2022/11/05 06:01:00;;;;;;;;;;;8.60;99.90;;;;;;5022260;28;19956;-74
2022/11/05 06:03:27;;;;;;;;;;;8.60;99.90;;;;;;5018925;28;20441;-74
2022/11/05 06:05:59;;;;;;;;;;;8.60;99.90;;;;;;5016032;28;19969;-74
2022/11/05 06:08:26;;;;;;;;;;;8.60;99.90;;;;;;5017350;28;20436;-74
2022/11/05 06:10:52;;;;;;;;;;;8.60;99.90;;;;;;5013050;28;19928;-74
2022/11/05 06:13:19;;;;;;;;;;;8.60;99.90;;;;;;5013475;28;20028;-74
2022/11/05 06:15:46;;;;;;;;;;;8.60;99.90;;;;;;5022120;28;19971;-74
2022/11/05 06:18:13;;;;;;;;;;;8.60;99.90;;;;;;5017375;28;19937;-74
2022/11/05 06:20:39;;;;;;;;;;;8.50;99.90;;;;;;5018360;28;19925;-74
2022/11/05 06:23:08;;;;;;;;;;;8.50;99.90;;;;;;5015441;28;19925;-74
2022/11/05 06:25:35;;;;;;;;;;;8.50;99.90;;;;;;5018382;28;19951;-72
2022/11/05 06:28:01;;;;;;;;;;;8.50;99.90;;;;;;5024186;28;19940;-74
2022/11/05 06:30:28;;;;;;;;;;;8.50;99.90;;;;;;5017081;28;19929;-74
2022/11/05 06:32:55;;;;;;;;;;;8.50;99.90;;;;;;5033911;28;19925;-73
2022/11/05 06:35:22;;;;;;;;;;;8.50;99.90;;;;;;5025459;28;20334;-74
2022/11/05 06:37:49;;;;;;;;;;;8.50;99.90;;;;;;5019341;28;19964;-74
2022/11/05 06:40:17;;;;;;;;;;;8.50;99.90;;;;;;5020123;28;19949;-74
2022/11/05 06:42:44;;;;;;;;;;;8.50;99.90;;;;;;5023272;28;19991;-74
2022/11/05 06:45:10;;;;;;;;;;;8.50;99.90;;;;;;5025524;28;20296;-74
2022/11/05 06:47:37;;;;;;;;;;;8.50;99.90;;;;;;5019250;28;20391;-74
2022/11/05 06:50:04;;;;;;;;;;;8.50;99.90;;;;;;5014868;28;20454;-74
2022/11/05 06:52:31;;;;;;;;;;;8.50;99.90;;;;;;5016793;28;20429;-74
2022/11/05 06:54:58;;;;;;;;;;;8.50;99.90;;;;;;5022902;28;19947;-74
2022/11/05 06:57:26;;;;;;;;;;;8.50;99.90;;;;;;5013843;28;19930;-74
2022/11/05 06:59:53;;;;;;;;;;;8.40;99.90;;;;;;5018501;28;19956;-74
2022/11/05 07:02:20;;;;;;;;;;;8.40;99.90;;;;;;5017854;28;20019;-74
2022/11/05 07:04:47;;;;;;;;;;;8.40;99.90;;;;;;5010544;28;19925;-74
2022/11/05 07:07:13;;;;;;;;;;;8.40;99.90;;;;;;5016843;28;20298;-74
2022/11/05 07:09:42;;;;;;;;;;;8.40;99.90;;;;;;5021218;28;19968;-74
2022/11/05 07:12:09;;;;;;;;;;;8.40;99.90;;;;;;5015959;28;20360;-74
2022/11/05 07:14:37;;;;;;;;;;;8.50;99.90;;;;;;5035012;28;20103;-75
2022/11/05 07:17:04;;;;;;;;;;;8.40;99.90;;;;;;5021076;28;19991;-74
2022/11/05 07:19:31;;;;;;;;;;;8.40;99.90;;;;;;5020756;28;19965;-74
2022/11/05 07:21:57;;;;;;;;;;;8.40;99.90;;;;;;5025205;28;20027;-74
2022/11/05 07:24:24;;;;;;;;;;;8.40;99.90;;;;;;5024367;28;20023;-74
2022/11/05 07:26:51;;;;;;;;;;;8.40;99.90;;;;;;5023125;28;19926;-73
2022/11/05 07:29:18;;;;;;;;;;;8.40;99.90;;;;;;5022555;28;19952;-72
2022/11/05 07:31:46;;;;;;;;;;;8.40;99.90;;;;;;5015981;28;20036;-72
2022/11/05 07:34:13;;;;;;;;;;;8.40;99.90;;;;;;5018672;28;19961;-73
2022/11/05 07:36:40;;;;;;;;;;;8.40;99.90;;;;;;5021829;28;19925;-73
2022/11/05 07:39:07;;;;;;;;;;;8.40;99.90;;;;;;5020345;28;20579;-73
2022/11/05 07:41:34;;;;;;;;;;;8.40;99.90;;;;;;5019706;28;20407;-73
2022/11/05 07:44:02;;;;;;;;;;;8.50;99.90;;;;;;5017683;28;19957;-73
2022/11/05 07:46:29;;;;;;;;;;;8.50;99.90;;;;;;5020052;28;20016;-72
2022/11/05 07:48:57;;;;;;;;;;;8.40;99.90;;;;;;5018789;28;19939;-73
2022/11/05 07:51:23;;;;;;;;;;;8.40;99.90;;;;;;5021594;28;19968;-72
2022/11/05 07:53:50;;;;;;;;;;;8.40;99.90;;;;;;5034789;28;19933;-73
2022/11/05 07:56:17;;;;;;;;;;;8.40;99.90;;;;;;5018163;28;19932;-73
2022/11/05 07:58:44;;;;;;;;;;;8.40;99.90;;;;;;5019057;28;19995;-72
2022/11/05 08:01:11;;;;;;;;;;;8.50;99.90;;;;;;5016494;28;20128;-73
2022/11/05 08:03:37;;;;;;;;;;;8.40;99.90;;;;;;5025340;28;20040;-73
2022/11/05 08:06:06;;;;;;;;;;;8.40;99.90;;;;;;5016908;28;20022;-73
2022/11/05 08:08:33;;;;;;;;;;;8.40;99.90;;;;;;5019454;28;19929;-72
2022/11/05 08:11:03;;;;;;;;;;;8.40;99.90;;;;;;5024026;28;20361;-72
2022/11/05 08:13:31;;;;;;;;;;;8.40;99.90;;;;;;5022957;28;20290;-72
2022/11/05 08:15:57;;;;;;;;;;;8.40;99.90;;;;;;5017603;28;20103;-72
2022/11/05 08:18:30;;;;;;;;;;;8.40;99.90;;;;;;5026331;28;19998;-73
2022/11/05 08:20:57;;;;;;;;;;;8.40;99.90;;;;;;5022978;28;20000;-73
2022/11/05 08:23:25;;;;;;;;;;;8.40;99.90;;;;;;5018842;28;19937;-74
2022/11/05 08:25:52;;;;;;;;;;;8.40;99.90;;;;;;5022179;28;19987;-74
2022/11/05 08:28:20;;;;;;;;;;;8.50;99.90;;;;;;5022187;28;19929;-74
2022/11/05 08:30:48;;;;;;;;;;;8.50;99.90;;;;;;5024116;28;20047;-74
2022/11/05 08:33:15;;;;;;;;;;;8.50;99.90;;;;;;5023140;28;19929;-74
2022/11/05 08:35:42;;;;;;;;;;;8.50;99.90;;;;;;5023769;28;19925;-74
2022/11/05 08:38:12;;;;;;;;;;;8.50;99.90;;;;;;5027852;28;19933;-74
2022/11/05 08:40:41;;;;;;;;;;;8.50;99.90;;;;;;5021444;28;19925;-74
2022/11/05 08:43:08;;;;;;;;;;;8.50;99.90;;;;;;5018075;28;19965;-74
2022/11/05 08:45:36;;;;;;;;;;;8.50;99.90;;;;;;5021666;28;19979;-72
2022/11/05 08:48:04;;;;;;;;;;;8.50;99.90;;;;;;5019426;28;19935;-72
2022/11/05 08:50:31;;;;;;;;;;;8.50;99.90;;;;;;5017828;28;19926;-73
2022/11/05 08:52:58;;;;;;;;;;;8.60;99.90;;;;;;5024739;28;19933;-72
2022/11/05 08:55:25;;;;;;;;;;;8.60;99.90;;;;;;5018746;28;19960;-73
2022/11/05 08:57:56;;;;;;;;;;;8.60;99.90;;;;;;5022446;28;19956;-73
2022/11/05 09:00:23;;;;;;;;;;;8.50;99.90;;;;;;5012767;28;20121;-73
2022/11/05 09:02:50;;;;;;;;;;;8.60;99.90;;;;;;5022155;28;19964;-73
2022/11/05 09:05:17;;;;;;;;;;;8.60;99.90;;;;;;5020590;28;20004;-72
2022/11/05 09:07:45;;;;;;;;;;;8.60;99.90;;;;;;5019455;28;20036;-73
2022/11/05 09:10:12;;;;;;;;;;;8.60;99.90;;;;;;5013432;28;19941;-72
2022/11/05 09:12:39;;;;;;;;;;;8.60;99.90;;;;;;5019555;28;19992;-72
2022/11/05 09:15:08;;;;;;;;;;;8.60;99.90;;;;;;5034003;22;19932;-73
2022/11/05 09:17:35;;;;;;;;;;;8.60;99.90;;;;;;5024074;28;19991;-72
2022/11/05 09:20:02;;;;;;;;;;;8.60;99.90;;;;;;5029266;28;19932;-72
2022/11/05 09:22:29;;;;;;;;;;;8.60;99.90;;;;;;5024264;28;20812;-72
2022/11/05 09:24:55;;;;;;;;;;;8.60;99.90;;;;;;5020528;28;19929;-72
2022/11/05 09:27:22;;;;;;;;;;;8.60;99.90;;;;;;5036657;28;19929;-72
2022/11/05 09:29:49;;;;;;;;;;;8.70;99.90;;;;;;5037227;28;19972;-72
2022/11/05 09:32:18;;;;;;;;;;;8.70;99.90;;;;;;5052587;28;20051;-72
2022/11/05 09:34:47;;;;;;;;;;;8.70;99.90;;;;;;5039437;28;20413;-72
2022/11/05 09:37:14;;;;;;;;;;;8.70;99.90;;;;;;5036290;28;19931;-72
2022/11/05 09:39:41;;;;;;;;;;;8.70;99.90;;;;;;5037641;28;20013;-72
2022/11/05 09:42:08;;;;;;;;;;;8.70;99.90;;;;;;5037296;28;19944;-72
2022/11/05 09:44:37;;;;;;;;;;;8.70;99.90;;;;;;5036514;28;19931;-72
2022/11/05 09:47:07;;;;;;;;;;;8.70;99.90;;;;;;5036813;28;19996;-72
2022/11/05 09:49:38;;;;;;;;;;;8.70;99.90;;;;;;5043753;28;19967;-72
2022/11/05 09:52:06;;;;;;;;;;;8.70;99.90;;;;;;5038283;28;20334;-72
2022/11/05 09:54:33;;;;;;;;;;;8.70;99.90;;;;;;5040098;28;19924;-72
2022/11/05 09:57:01;;;;;;;;;;;8.70;99.90;;;;;;5038361;28;20387;-72
2022/11/05 09:59:30;;;;;;;;;;;8.70;99.90;;;;;;5038452;28;19931;-72
2022/11/05 10:02:00;;;;;;;;;;;8.70;99.90;;;;;;5036222;28;20367;-73
2022/11/05 10:04:29;;;;;;;;;;;8.70;99.90;;;;;;5057216;28;20341;-72
2022/11/05 10:06:59;;;;;;;;;;;8.70;99.90;;;;;;5031626;28;19999;-73
2022/11/05 10:09:27;;;;;;;;;;;8.70;99.90;;;;;;5035899;28;20007;-72
2022/11/05 10:11:55;;;;;;;;;;;8.70;99.90;;;;;;5038786;28;19932;-73
2022/11/05 10:14:24;;;;;;;;;;;8.80;99.90;;;;;;5040818;28;20541;-72
2022/11/05 10:16:52;;;;;;;;;;;8.70;99.90;;;;;;5033282;28;19987;-73
2022/11/05 10:19:23;;;;;;;;;;;8.80;99.90;;;;;;5026291;28;20318;-73
2022/11/05 10:21:50;;;;;;;;;;;8.80;99.90;;;;;;5029837;28;19947;-72
2022/11/05 10:24:19;;;;;;;;;;;8.80;99.90;;;;;;5035175;28;20410;-73
2022/11/05 10:26:47;;;;;;;;;;;8.80;99.90;;;;;;5036495;28;19964;-73
2022/11/05 10:29:16;;;;;;;;;;;8.80;99.90;;;;;;5036274;28;19925;-73
2022/11/05 10:31:43;;;;;;;;;;;8.80;99.90;;;;;;5033794;28;20358;-73
2022/11/05 10:34:12;;;;;;;;;;;8.80;99.90;;;;;;5032849;28;19960;-75
2022/11/05 10:36:39;;;;;;;;;;;8.80;99.90;;;;;;5032060;28;19933;-72
2022/11/05 10:39:11;;;;;;;;;;;8.80;99.90;;;;;;5032433;28;19925;-83
2022/11/05 10:41:45;;;;;;;;;;;8.80;99.90;;;;;;5037323;28;20556;-74
2022/11/05 10:44:19;;;;;;;;;;;8.80;99.90;;;;;;5029608;28;19929;-78
2022/11/05 10:46:51;;;;;;;;;;;8.90;99.90;;;;;;5029054;28;19929;-75
2022/11/05 10:49:23;;;;;;;;;;;8.80;99.90;;;;;;5036475;28;19925;-76
2022/11/05 10:51:53;;;;;;;;;;;8.80;99.90;;;;;;5030698;28;19929;-76
2022/11/05 10:54:21;;;;;;;;;;;8.90;99.90;;;;;;5035083;28;19924;-73
2022/11/05 10:56:50;;;;;;;;;;;8.90;99.90;;;;;;5030789;28;19932;-80
2022/11/05 10:59:21;;;;;;;;;;;8.90;99.90;;;;;;5058497;28;19924;-76
2022/11/05 11:01:55;;;;;;;;;;;8.90;99.90;;;;;;5029238;28;20318;-86
2022/11/05 11:04:23;;;;;;;;;;;8.90;99.90;;;;;;5027888;28;20602;-81
2022/11/05 11:06:52;;;;;;;;;;;8.90;99.90;;;;;;5032996;28;19931;-76
2022/11/05 11:09:21;;;;;;;;;;;8.90;99.90;;;;;;5036866;28;20020;-79
2022/11/05 11:11:55;;;;;;;;;;;8.90;99.90;;;;;;5033960;28;19939;-76
2022/11/05 11:14:22;;;;;;;;;;;8.90;99.90;;;;;;5034489;28;19925;-84
2022/11/05 11:16:50;;;;;;;;;;;8.90;99.90;;;;;;5032244;28;19971;-74
2022/11/05 11:19:24;;;;;;;;;;;8.90;99.90;;;;;;5038427;28;20294;-77
2022/11/05 11:22:11;;;;;;;;;;;8.90;99.90;;;;;;5022878;28;19929;-75
2022/11/05 11:24:39;;;;;;;;;;;8.90;99.90;;;;;;5033900;28;19961;-75
2022/11/05 11:27:10;;;;;;;;;;;9.00;99.90;;;;;;5029186;28;20330;-78
2022/11/05 11:29:39;;;;;;;;;;;8.90;99.90;;;;;;5034176;28;19929;-75
2022/11/05 11:32:11;;;;;;;;;;;9.00;99.90;;;;;;5033593;28;19968;-76
2022/11/05 11:34:39;;;;;;;;;;;9.00;99.90;;;;;;5030850;28;19929;-76
2022/11/05 11:37:07;;;;;;;;;;;9.00;99.90;;;;;;5050910;28;19937;-76
2022/11/05 11:39:34;;;;;;;;;;;9.00;99.90;;;;;;5049339;28;19979;-78
2022/11/05 11:42:06;;;;;;;;;;;9.00;99.90;;;;;;5021381;28;20305;-76
2022/11/05 11:44:36;;;;;;;;;;;9.00;99.90;;;;;;5034120;28;20023;-76
2022/11/05 11:47:05;;;;;;;;;;;9.00;99.90;;;;;;5031612;28;19933;-79
2022/11/05 11:49:32;;;;;;;;;;;9.00;99.90;;;;;;5034684;28;20456;-76
2022/11/05 11:52:00;;;;;;;;;;;9.00;99.90;;;;;;5028619;28;19932;-74
2022/11/05 11:54:27;;;;;;;;;;;9.00;99.90;;;;;;5031403;28;19929;-75
2022/11/05 11:56:54;;;;;;;;;;;8.90;99.90;;;;;;5026581;28;19925;-76
2022/11/05 11:59:23;;;;;;;;;;;9.00;99.90;;;;;;5045581;28;20462;-74
2022/11/05 12:02:01;;;;;;;;;;;9.00;99.90;;;;;;5029340;28;20421;-74
2022/11/05 12:04:46;;;;;;;;;;;9.00;99.90;;;;;;5033679;28;19964;-74
2022/11/05 12:07:18;;;;;;;;;;;8.90;99.90;;;;;;5024861;28;19960;-75
2022/11/05 12:09:54;;;;;;;;;;;9.00;99.90;;;;;;5038944;28;19979;-75
2022/11/05 12:12:26;;;;;;;;;;;9.00;99.90;;;;;;5031898;28;19956;-75
2022/11/05 12:14:55;;;;;;;;;;;9.00;99.90;;;;;;5032381;28;20085;-74
2022/11/05 12:17:30;;;;;;;;;;;9.00;99.90;;;;;;5036710;28;19924;-74
2022/11/05 12:20:10;;;;;;;;;;;9.00;99.90;;;;;;5033935;28;20015;-74
2022/11/05 12:22:48;;;;;;;;;;;9.00;99.90;;;;;;5031806;28;20030;-75
2022/11/05 12:25:22;;;;;;;;;;;9.00;99.90;;;;;;5037099;28;20027;-74
2022/11/05 12:27:58;;;;;;;;;;;9.00;99.90;;;;;;5034486;28;20022;-74
2022/11/05 12:30:25;;;;;;;;;;;9.00;99.90;;;;;;5034513;28;19936;-74
2022/11/05 12:33:04;;;;;;;;;;;9.00;99.90;;;;;;5036840;28;19925;-74
2022/11/05 12:35:38;;;;;;;;;;;9.00;99.90;;;;;;5033515;28;20012;-74
2022/11/05 12:38:09;;;;;;;;;;;9.00;99.90;;;;;;5032602;28;20015;-75
2022/11/05 12:40:43;;;;;;;;;;;9.00;99.90;;;;;;5033369;28;19928;-75
2022/11/05 12:43:14;;;;;;;;;;;9.00;99.90;;;;;;5030447;28;20019;-73
2022/11/05 12:45:45;;;;;;;;;;;9.10;99.90;;;;;;5022326;28;19964;-72
2022/11/05 12:48:19;;;;;;;;;;;9.00;99.90;;;;;;5035923;28;19963;-72
2022/11/05 12:50:47;;;;;;;;;;;9.00;99.90;;;;;;5042123;28;20067;-72
2022/11/05 12:53:31;;;;;;;;;;;9.00;99.90;;;;;;5039669;28;20022;-72
2022/11/05 12:55:59;;;;;;;;;;;9.00;99.90;;;;;;5034152;28;19979;-72
2022/11/05 12:58:28;;;;;;;;;;;9.00;99.90;;;;;;5042523;28;20315;-72
2022/11/05 13:00:57;;;;;;;;;;;9.00;99.90;;;;;;5039088;28;19994;-72
2022/11/05 13:03:31;;;;;;;;;;;9.10;99.90;;;;;;5040310;28;19925;-72
2022/11/05 13:06:01;;;;;;;;;;;9.00;99.90;;;;;;5039205;28;19924;-72
2022/11/05 13:08:30;;;;;;;;;;;9.00;99.90;;;;;;5042571;28;20020;-72
2022/11/05 13:10:58;;;;;;;;;;;9.00;99.90;;;;;;5031001;28;20003;-70
2022/11/05 13:13:27;;;;;;;;;;;9.00;99.90;;;;;;5028320;28;21662;-71
2022/11/05 13:15:55;;;;;;;;;;;9.00;99.90;;;;;;5037517;28;19925;-71
2022/11/05 13:18:25;;;;;;;;;;;9.00;99.90;;;;;;5039395;28;19925;-71
2022/11/05 13:20:55;;;;;;;;;;;9.00;99.90;;;;;;5037577;28;19956;-71
2022/11/05 13:23:25;;;;;;;;;;;9.10;99.90;;;;;;5031689;28;19925;-71
2022/11/05 13:25:53;;;;;;;;;;;9.00;99.90;;;;;;5027900;28;20344;-71
2022/11/05 13:28:24;;;;;;;;;;;9.00;99.90;;;;;;5036558;28;19940;-71
2022/11/05 13:30:54;;;;;;;;;;;9.00;99.90;;;;;;5032047;28;20588;-71
2022/11/05 13:33:23;;;;;;;;;;;9.00;99.90;;;;;;5035006;28;19925;-71
2022/11/05 13:38:57;;;;;;;;;;;9.00;99.90;;;;;;5036754;28;19940;-72
2022/11/05 13:38:59;;;;;;;;;;;9.00;99.90;;;;;;5038220;28;19928;-73
2022/11/05 13:41:31;;;;;;;;;;;9.00;99.90;;;;;;5039978;28;19952;-72
2022/11/05 13:44:12;;;;;;;;;;;9.00;99.90;;;;;;5036171;28;19952;-72
2022/11/05 13:46:49;;;;;;;;;;;9.00;99.90;;;;;;5026318;28;19937;-71
2022/11/05 13:49:25;;;;;;;;;;;9.00;99.90;;;;;;5028320;28;20038;-79
2022/11/05 13:51:53;;;;;;;;;;;9.00;99.90;;;;;;5028103;28;19936;-72
2022/11/05 13:54:44;;;;;;;;;;;9.00;99.90;;;;;;5037733;28;19980;-72
2022/11/05 13:57:19;;;;;;;;;;;9.00;99.90;;;;;;5034425;28;19956;-70
2022/11/05 13:59:51;;;;;;;;;;;9.00;99.90;;;;;;5024434;28;20062;-72
2022/11/05 14:02:20;;;;;;;;;;;9.00;99.90;;;;;;5032519;28;19925;-72
2022/11/05 14:04:48;;;;;;;;;;;9.00;99.90;;;;;;5030493;28;19951;-72
2022/11/05 14:07:17;;;;;;;;;;;9.00;99.90;;;;;;5026348;28;20005;-71
2022/11/05 14:09:47;;;;;;;;;;;9.00;99.90;;;;;;5026051;28;20466;-71
2022/11/05 14:12:18;;;;;;;;;;;9.00;99.90;;;;;;5025769;28;19929;-71
2022/11/05 14:14:46;;;;;;;;;;;9.00;99.90;;;;;;5036779;28;19959;-71
2022/11/05 14:17:15;;;;;;;;;;;9.00;99.90;;;;;;5033612;28;19928;-71
2022/11/05 14:20:05;;;;;;;;;;;9.10;99.90;;;;;;5016546;28;20122;-83
2022/11/05 14:22:37;;;;;;;;;;;9.00;99.90;;;;;;5026280;28;19932;-73
2022/11/05 14:25:19;;;;;;;;;;;9.00;99.90;;;;;;5037741;28;19971;-78
2022/11/05 14:27:48;;;;;;;;;;;9.00;99.90;;;;;;5030106;28;19959;-76
2022/11/05 14:30:33;;;;;;;;;;;9.10;99.90;;;;;;5031449;28;19939;-76
2022/11/05 14:33:03;;;;;;;;;;;9.10;99.90;;;;;;5032639;28;19975;-72
2022/11/05 14:35:35;;;;;;;;;;;9.10;99.90;;;;;;5028254;28;19929;-72
2022/11/05 14:38:02;;;;;;;;;;;9.10;99.90;;;;;;5032119;28;20394;-73
2022/11/05 14:40:32;;;;;;;;;;;9.10;99.90;;;;;;5027122;28;20666;-72
2022/11/05 14:43:01;;;;;;;;;;;9.10;99.90;;;;;;5027864;28;19929;-72
2022/11/05 14:45:30;;;;;;;;;;;9.10;99.90;;;;;;5023263;28;19955;-75
2022/11/05 14:47:59;;;;;;;;;;;9.10;99.90;;;;;;5035983;28;20210;-75
2022/11/05 14:50:31;;;;;;;;;;;9.10;99.90;;;;;;5025858;28;19998;-74
2022/11/05 14:53:03;;;;;;;;;;;9.10;99.90;;;;;;5033682;28;19925;-75
2022/11/05 14:55:33;;;;;;;;;;;9.10;99.90;;;;;;5024433;28;19936;-75
2022/11/05 14:58:02;;;;;;;;;;;9.00;99.90;;;;;;5027003;28;19928;-74
2022/11/05 15:00:46;;;;;;;;;;;9.00;99.90;;;;;;5021689;28;20640;-75
2022/11/05 15:03:34;;;;;;;;;;;9.00;99.90;;;;;;5023769;28;20393;-83
2022/11/05 15:06:05;;;;;;;;;;;9.00;99.90;;;;;;5016175;28;19929;-75
2022/11/05 15:08:35;;;;;;;;;;;9.00;99.90;;;;;;5018211;28;20006;-81
2022/11/05 15:11:07;;;;;;;;;;;9.00;99.90;;;;;;5015093;28;19924;-72
2022/11/05 15:13:38;;;;;;;;;;;9.00;99.90;;;;;;5008526;28;20018;-72
2022/11/05 15:16:05;;;;;;;;;;;9.00;99.90;;;;;;5138881;22;20419;-95
2022/11/05 15:18:34;;;;;;;;;;;9.00;99.90;;;;;;5039779;28;19933;-93
2022/11/05 15:21:02;;;;;;;;;;;9.00;99.90;;;;;;5030305;28;19929;-93
2022/11/05 15:23:33;;;;;;;;;;;9.00;99.90;;;;;;5025532;28;20386;-94
2022/11/05 15:26:09;;;;;;;;;;;9.00;99.90;;;;;;5009412;28;19936;-93